createdAt,value
2022-10-29T00:00:29.937Z,11.7
2022-10-29T00:14:29.936Z,11.4
2022-10-29T00:28:06.359Z,11.2
2022-10-29T00:42:06.355Z,11.2
2022-10-29T00:56:06.271Z,11.0
2022-10-29T01:10:06.289Z,11.1
2022-10-29T01:24:06.316Z,11.1
2022-10-29T01:38:06.304Z,10.9
2022-10-29T01:52:06.296Z,11.0
2022-10-29T02:06:06.294Z,11.0
2022-10-29T02:20:06.278Z,11.1
2022-10-29T02:34:06.292Z,11.2
2022-10-29T02:48:06.349Z,11.1
2022-10-29T03:02:06.498Z,11.2
2022-10-29T03:16:06.359Z,11.3
2022-10-29T03:30:06.373Z,11.2
2022-10-29T03:44:06.421Z,11.5
2022-10-29T03:58:06.405Z,10.9
2022-10-29T04:12:06.462Z,10.9
2022-10-29T04:28:18.053Z,11.1
2022-10-29T04:40:06.497Z,11.7
2022-10-29T04:54:06.517Z,11.5
2022-10-29T05:08:06.553Z,11.9
2022-10-29T05:22:06.516Z,11.3
2022-10-29T05:36:06.536Z,10.8
2022-10-29T05:51:06.592Z,10.4
2022-10-29T06:07:06.629Z,10.3
2022-10-29T06:22:06.620Z,10.5
2022-10-29T06:37:06.630Z,10.7
2022-10-29T06:52:06.648Z,10.9
2022-10-29T07:07:06.639Z,11.4
2022-10-29T07:22:06.620Z,12.4
2022-10-29T07:37:06.633Z,15.7
2022-10-29T07:52:06.766Z,18.8
2022-10-29T08:07:06.818Z,19.8
2022-10-29T08:22:06.825Z,20.6
2022-10-29T08:37:06.808Z,20.7
2022-10-29T08:52:06.817Z,22.0
2022-10-29T09:07:06.827Z,22.2
2022-10-29T09:22:06.859Z,21.8
2022-10-29T09:37:06.857Z,21.9
2022-10-29T09:52:06.875Z,21.8
2022-10-29T10:07:06.916Z,21.3
2022-10-29T10:22:08.476Z,21.6
2022-10-29T10:37:06.931Z,21.8
2022-10-29T10:52:06.959Z,21.8
2022-10-29T11:07:06.965Z,22.0
2022-10-29T11:23:07.014Z,22.7
2022-10-29T11:38:07.033Z,23.7
2022-10-29T11:53:07.050Z,24.0
2022-10-29T12:08:07.047Z,24.1
2022-10-29T12:23:10.565Z,24.8
2022-10-29T12:38:07.046Z,25.5
2022-10-29T12:53:07.096Z,26.6
2022-10-29T13:08:07.119Z,26.3
2022-10-29T13:23:09.669Z,25.7
2022-10-29T13:39:07.618Z,26.6
2022-10-29T13:54:07.099Z,26.7
2022-10-29T14:09:09.548Z,25.7
2022-10-29T14:24:07.188Z,23.2
2022-10-29T14:39:07.245Z,22.6
2022-10-29T14:54:07.245Z,23.0
2022-10-29T15:09:08.319Z,22.7
2022-10-29T15:24:08.356Z,21.5
2022-10-29T15:39:08.445Z,20.6
2022-10-29T15:54:08.331Z,19.2
2022-10-29T16:09:08.322Z,17.9
2022-10-29T16:24:08.331Z,16.9
2022-10-29T16:39:08.442Z,16.6
2022-10-29T16:53:08.476Z,15.9
2022-10-29T17:07:08.437Z,15.5
2022-10-29T17:21:08.441Z,15.1
2022-10-29T17:35:08.451Z,14.7
2022-10-29T17:49:08.471Z,14.3
2022-10-29T18:03:08.502Z,14.8
2022-10-29T18:17:08.481Z,14.2
2022-10-29T18:31:08.499Z,13.8
2022-10-29T18:45:08.492Z,13.6
2022-10-29T18:59:08.493Z,13.8
2022-10-29T19:13:08.533Z,14.0
2022-10-29T19:27:08.503Z,13.9
2022-10-29T19:41:08.510Z,13.7
2022-10-29T19:55:08.554Z,13.7
2022-10-29T20:09:08.638Z,13.4
2022-10-29T20:23:08.654Z,13.6
2022-10-29T20:37:08.619Z,13.4
2022-10-29T20:51:08.630Z,12.9
2022-10-29T21:05:08.777Z,12.5
2022-10-29T21:19:08.766Z,12.3
2022-10-29T21:33:08.772Z,12.4
2022-10-29T21:47:08.760Z,12.4
2022-10-29T22:01:08.864Z,12.3
2022-10-29T22:15:08.790Z,12.2
2022-10-29T22:29:08.795Z,12.2
2022-10-29T22:43:08.815Z,11.9
2022-10-29T22:57:08.792Z,11.9
2022-10-29T23:11:11.111Z,12.2
2022-10-29T23:25:11.085Z,12.1
2022-10-29T23:39:11.065Z,11.8
2022-10-29T23:53:11.091Z,11.6
